createdAt,value
2023-08-17T00:03:34.574Z,8
2023-08-17T00:08:34.496Z,8
2023-08-17T00:13:34.507Z,7
2023-08-17T00:18:34.517Z,7
2023-08-17T00:23:34.508Z,9
2023-08-17T00:28:34.539Z,7
2023-08-17T00:33:34.676Z,8
2023-08-17T00:38:34.584Z,9
2023-08-17T00:43:34.576Z,8
2023-08-17T00:48:34.596Z,8
2023-08-17T00:53:34.617Z,11
2023-08-17T00:58:34.656Z,10
2023-08-17T01:03:34.596Z,9
2023-08-17T01:08:34.621Z,9
2023-08-17T01:13:34.626Z,8
2023-08-17T01:18:34.651Z,8
2023-08-17T01:23:34.700Z,14
2023-08-17T01:28:34.631Z,16
2023-08-17T01:33:34.671Z,11
2023-08-17T01:38:34.678Z,11
2023-08-17T01:43:34.695Z,8
2023-08-17T01:48:34.681Z,10
2023-08-17T01:53:34.711Z,10
2023-08-17T01:58:34.714Z,9
2023-08-17T02:03:34.742Z,9
2023-08-17T02:08:34.735Z,9
2023-08-17T02:13:34.729Z,9
2023-08-17T02:18:34.733Z,8
2023-08-17T02:23:34.770Z,8
2023-08-17T02:28:34.763Z,10
2023-08-17T02:33:34.830Z,10
2023-08-17T02:38:34.885Z,11
2023-08-17T02:43:34.810Z,9
2023-08-17T02:48:34.803Z,10
2023-08-17T02:53:34.812Z,10
2023-08-17T02:58:34.831Z,9
2023-08-17T03:03:35.179Z,9
2023-08-17T03:08:34.849Z,8
2023-08-17T03:13:34.846Z,8
2023-08-17T03:18:34.880Z,8
2023-08-17T03:23:34.887Z,11
2023-08-17T03:28:34.898Z,11
2023-08-17T03:33:34.900Z,10
2023-08-17T03:38:34.940Z,13
2023-08-17T03:43:34.930Z,11
2023-08-17T03:48:34.954Z,14
2023-08-17T03:53:35.055Z,13
2023-08-17T03:58:34.952Z,11
2023-08-17T04:03:34.979Z,10
2023-08-17T04:08:34.952Z,11
2023-08-17T04:13:34.986Z,12
2023-08-17T04:18:35.006Z,13
2023-08-17T04:23:34.927Z,10
2023-08-17T04:28:35.022Z,10
2023-08-17T04:33:35.099Z,10
2023-08-17T04:38:35.017Z,10
2023-08-17T04:43:35.067Z,9
2023-08-17T04:48:35.057Z,10
2023-08-17T04:53:37.997Z,11
2023-08-17T04:58:35.078Z,10
2023-08-17T05:03:35.108Z,14
2023-08-17T05:08:35.104Z,12
2023-08-17T05:23:35.258Z,11
2023-08-17T05:28:35.156Z,14
2023-08-17T05:33:35.129Z,10
2023-08-17T05:38:35.126Z,12
2023-08-17T05:43:35.177Z,11
2023-08-17T05:48:35.160Z,14
2023-08-17T05:53:35.182Z,16
2023-08-17T05:58:35.190Z,12
2023-08-17T06:08:35.199Z,11
2023-08-17T06:13:35.230Z,10
2023-08-17T06:18:35.263Z,10
2023-08-17T06:23:35.249Z,12
2023-08-17T06:28:35.250Z,11
2023-08-17T06:33:35.270Z,11
2023-08-17T06:38:35.268Z,13
2023-08-17T06:43:35.266Z,12
2023-08-17T06:48:35.288Z,13
2023-08-17T06:58:35.298Z,10
2023-08-17T07:03:35.609Z,11
2023-08-17T07:08:35.333Z,10
2023-08-17T07:13:35.310Z,10
2023-08-17T07:18:35.355Z,10
2023-08-17T07:23:35.435Z,11
2023-08-17T07:28:35.389Z,10
2023-08-17T07:33:35.375Z,10
2023-08-17T07:43:35.408Z,9
2023-08-17T07:48:35.428Z,10
2023-08-17T07:53:35.400Z,10
2023-08-17T07:58:35.435Z,10
2023-08-17T08:03:35.457Z,9
2023-08-17T08:08:35.429Z,9
2023-08-17T08:13:35.461Z,10
2023-08-17T08:18:35.460Z,9
2023-08-17T08:23:35.463Z,10
2023-08-17T08:28:35.491Z,10
2023-08-17T08:33:35.627Z,11
2023-08-17T08:38:35.499Z,11
2023-08-17T08:43:35.543Z,9
2023-08-17T08:48:35.528Z,11
2023-08-17T08:53:36.828Z,9
2023-08-17T08:58:35.563Z,10
2023-08-17T09:03:35.555Z,11
2023-08-17T09:08:35.548Z,10
2023-08-17T09:13:35.681Z,12
2023-08-17T09:18:38.459Z,9
2023-08-17T09:23:37.604Z,10
2023-08-17T09:28:35.617Z,11
2023-08-17T09:33:35.855Z,11
2023-08-17T09:38:35.649Z,11
2023-08-17T09:43:35.690Z,13
2023-08-17T09:48:35.636Z,13
2023-08-17T09:53:35.645Z,12
2023-08-17T10:03:35.779Z,10
2023-08-17T10:13:35.687Z,10
2023-08-17T10:18:35.699Z,11
2023-08-17T10:23:35.730Z,10
2023-08-17T10:28:35.729Z,12
2023-08-17T10:33:35.741Z,10
2023-08-17T10:38:35.756Z,11
2023-08-17T10:43:35.754Z,10
2023-08-17T10:48:37.759Z,11
2023-08-17T10:53:35.786Z,8
2023-08-17T10:58:35.799Z,7
2023-08-17T11:03:35.704Z,8
2023-08-17T11:08:35.896Z,8
2023-08-17T11:13:35.834Z,7
2023-08-17T11:18:35.849Z,7
2023-08-17T11:23:35.830Z,7
2023-08-17T11:28:35.828Z,15
2023-08-17T11:33:35.864Z,8
2023-08-17T11:38:35.880Z,7
2023-08-17T11:43:36.055Z,7
2023-08-17T11:48:37.693Z,7
2023-08-17T11:53:35.913Z,6
2023-08-17T11:58:35.910Z,6
2023-08-17T12:03:36.037Z,6
2023-08-17T12:08:35.914Z,7
2023-08-17T12:18:35.927Z,8
2023-08-17T12:23:35.999Z,6
2023-08-17T12:28:35.973Z,6
2023-08-17T12:33:35.956Z,8
2023-08-17T12:38:35.977Z,6
2023-08-17T12:43:36.023Z,7
2023-08-17T12:48:36.719Z,6
2023-08-17T12:53:36.027Z,7
2023-08-17T13:03:36.289Z,6
2023-08-17T13:08:36.327Z,7
2023-08-17T13:13:36.058Z,7
2023-08-17T13:18:36.075Z,7
2023-08-17T13:23:36.085Z,7
2023-08-17T13:28:36.079Z,8
2023-08-17T13:33:36.183Z,7
2023-08-17T13:38:36.116Z,7
2023-08-17T13:43:36.125Z,9
2023-08-17T13:48:36.115Z,7
2023-08-17T13:53:36.125Z,9
2023-08-17T13:58:36.266Z,8
2023-08-17T14:03:36.166Z,8
2023-08-17T14:08:36.180Z,9
2023-08-17T14:13:36.164Z,8
2023-08-17T14:18:36.176Z,6
2023-08-17T14:23:36.206Z,14
2023-08-17T14:28:36.240Z,7
2023-08-17T14:33:36.393Z,8
2023-08-17T14:38:36.338Z,9
2023-08-17T14:43:36.241Z,9
2023-08-17T14:48:36.259Z,7
2023-08-17T14:58:36.285Z,7
2023-08-17T15:03:36.433Z,8
2023-08-17T15:08:36.297Z,8
2023-08-17T15:13:36.419Z,7
2023-08-17T15:18:36.336Z,8
2023-08-17T15:23:36.317Z,8
2023-08-17T15:28:36.340Z,8
2023-08-17T15:33:36.321Z,8
2023-08-17T15:38:36.363Z,8
2023-08-17T15:43:36.370Z,11
2023-08-17T15:48:36.356Z,9
2023-08-17T15:58:36.482Z,8
2023-08-17T16:03:36.477Z,9
2023-08-17T16:08:48.490Z,9
2023-08-17T16:13:36.436Z,8
2023-08-17T16:18:36.413Z,8
2023-08-17T16:23:36.442Z,7
2023-08-17T16:28:36.457Z,8
2023-08-17T16:33:36.738Z,11
2023-08-17T16:43:36.592Z,7
2023-08-17T16:48:36.505Z,8
2023-08-17T16:53:36.381Z,11
2023-08-17T16:58:36.499Z,7
2023-08-17T17:03:36.422Z,6
2023-08-17T17:08:36.413Z,7
2023-08-17T17:13:36.525Z,8
2023-08-17T17:23:36.558Z,7
2023-08-17T17:28:36.596Z,6
2023-08-17T17:33:36.572Z,7
2023-08-17T17:38:36.583Z,6
2023-08-17T17:43:36.518Z,6
2023-08-17T17:48:36.621Z,7
2023-08-17T17:53:36.611Z,6
2023-08-17T17:58:36.629Z,7
2023-08-17T18:03:37.579Z,5
2023-08-17T18:08:36.659Z,8
2023-08-17T18:13:36.786Z,7
2023-08-17T18:18:36.574Z,6
2023-08-17T18:23:36.565Z,7
2023-08-17T18:28:36.594Z,8
2023-08-17T18:33:36.690Z,6
2023-08-17T18:38:36.699Z,7
2023-08-17T18:43:36.756Z,8
2023-08-17T18:48:36.760Z,7
2023-08-17T18:58:36.755Z,6
2023-08-17T19:03:37.062Z,5
2023-08-17T19:08:36.762Z,6
2023-08-17T19:13:36.794Z,7
2023-08-17T19:18:36.801Z,8
2023-08-17T19:23:36.785Z,7
2023-08-17T19:28:44.082Z,7
2023-08-17T19:33:36.837Z,7
2023-08-17T19:43:36.938Z,5
2023-08-17T19:48:36.845Z,5
2023-08-17T19:53:37.037Z,5
2023-08-17T19:58:36.864Z,7
2023-08-17T20:03:36.974Z,6
2023-08-17T20:08:36.891Z,6
2023-08-17T20:13:36.908Z,5
2023-08-17T20:18:36.922Z,5
2023-08-17T20:28:37.043Z,5
2023-08-17T20:33:36.957Z,6
2023-08-17T20:38:37.069Z,8
2023-08-17T20:43:36.971Z,5
2023-08-17T20:48:36.962Z,5
2023-08-17T20:53:37.219Z,6
2023-08-17T20:58:37.026Z,6
2023-08-17T21:03:37.131Z,6
2023-08-17T21:08:37.023Z,6
2023-08-17T21:18:37.054Z,5
2023-08-17T21:23:37.215Z,6
2023-08-17T21:28:37.057Z,5
2023-08-17T21:33:37.057Z,7
2023-08-17T21:38:37.091Z,6
2023-08-17T21:43:37.179Z,8
2023-08-17T21:48:37.084Z,7
2023-08-17T21:53:37.094Z,6
2023-08-17T21:58:37.106Z,7
2023-08-17T22:03:37.292Z,7
2023-08-17T22:08:37.278Z,6
2023-08-17T22:13:37.152Z,5
2023-08-17T22:18:37.167Z,6
2023-08-17T22:23:37.161Z,6
2023-08-17T22:28:37.174Z,6
2023-08-17T22:33:37.174Z,7
2023-08-17T22:38:37.203Z,5
2023-08-17T22:43:37.196Z,6
2023-08-17T22:53:37.205Z,6
2023-08-17T22:58:37.352Z,6
2023-08-17T23:03:37.295Z,5
2023-08-17T23:08:37.247Z,5
2023-08-17T23:13:37.250Z,6
2023-08-17T23:18:37.288Z,6
2023-08-17T23:23:37.295Z,5
2023-08-17T23:28:37.301Z,6
2023-08-17T23:33:37.455Z,6
2023-08-17T23:43:37.305Z,6
2023-08-17T23:48:37.473Z,6
2023-08-17T23:53:37.442Z,5
2023-08-17T23:58:37.338Z,5
